ADDS METAR Data INFO
IDs: Format: Raw Decoded Include TAF

Data at: 0513 UTC 21 Feb 2018

KGUP 201453Z AUTO 20003KT 10SM OVC075 M09/M12 A2992 RMK AO2 SLP193 T10941117 51016
KGUP 201353Z AUTO 17003KT 10SM OVC080 M09/M12 A2991 RMK AO2 SLP177 T10891117
KGUP 201253Z AUTO 20004KT 10SM OVC060 M08/M11 A2989 RMK AO2 SLP156 T10781106
KGUP 201153Z AUTO 22006KT 10SM OVC060 M07/M11 A2987 RMK AO2 SLP128 60001 70021 T10671106 11056 21067 51009
KGUP 201053Z AUTO 22010G19KT 10SM OVC060 M06/M12 A2987 RMK AO2 SLP117 T10611117
KGUP 200953Z AUTO 24011KT 10SM OVC060 M06/M12 A2984 RMK AO2 SLP110 T10611117
KGUP 200853Z AUTO 24009KT 10SM OVC055 M06/M12 A2984 RMK AO2 SLP098 60001 T10561122 53006
KGUP 200753Z AUTO 25017KT 10SM OVC049 M06/M12 A2982 RMK AO2 SNE24 SLP092 P0001 T10561117
KGUP 200729Z AUTO 25017G21KT 9SM OVC035 M06/M11 A2982 RMK AO2 SNE24 P0001 T10561111
KGUP 200653Z AUTO 23014KT 3SM -SN OVC027 M06/M09 A2981 RMK AO2 PK WND 25029/0603 SNE21B35 SLP099 P0000 T10561094 400941061
KGUP 200648Z AUTO 24012G20KT 4SM -SN OVC027 M06/M09 A2982 RMK AO2 PK WND 25029/0603 SNE21B35 P0000
KGUP 200633Z AUTO 25016KT 10SM OVC033 M06/M10 A2981 RMK AO2 PK WND 25029/0603 SNE21 P0000 T10561100
KGUP 200612Z AUTO 25019G29KT 4SM -SN OVC025 M06/M09 A2980 RMK AO2 PK WND 25029/0603 P0000 T10561094
KGUP 200600Z AUTO 25018G26KT 2 1/2SM -SN OVC019 M06/M09 A2979 RMK AO2 PK WND 25026/0554 P0000 T10561089
KGUP 200553Z AUTO 25019KT 1 3/4SM -SN BR OVC017 M06/M08 A2979 RMK AO2 PK WND 27028/0525 SLP102 P0000 60015 T10561078 10056 21056 51021
KGUP 200549Z AUTO 24015KT 1 1/2SM -SN BR OVC015 M06/M08 A2979 RMK AO2 PK WND 27028/0525 P0000
KGUP 200508Z AUTO 26016G22KT 1SM -SN BR VV011 M05/M07 A2977 RMK AO2 P0000 T10501067
KGUP 200455Z AUTO 27012KT 3/4SM -SN BR VV009 M04/M06 A2976 RMK AO2 P0000 T10441061
KGUP 200453Z AUTO 27013KT 1SM -SN BR VV010 M04/M06 A2976 RMK AO2 SLP080 P0001 T10441061
KGUP 200416Z AUTO 25012KT 1SM -SN BR VV010 M04/M06 A2973 RMK AO2 P0001 T10441056
KGUP 200353Z AUTO 24009KT 1/2SM SN FZFG VV006 M04/M05 A2972 RMK AO2 SLP065 P0002 T10391050
KGUP 200307Z AUTO 25013KT 3/4SM -SN BR VV009 M02/M03 A2966 RMK AO2 P0000 T10221033
KGUP 200253Z AUTO 25014G22KT 1 1/4SM -SN BR OVC011 M02/M03 A2965 RMK AO2 PK WND 25031/0227 SLP041 P0001 60012 T10221033 51039
KGUP 200242Z AUTO 25016G22KT 1SM -SN BR VV010 M02/M03 A2964 RMK AO2 PK WND 25031/0227 P0001 T10221033
KGUP 200234Z AUTO 25016G31KT 3/4SM -SN BR VV010 M02/M03 A2965 RMK AO2 PK WND 25031/0227 PRESRR P0001 T10171033
KGUP 200225Z AUTO 25020G28KT 1SM -SN BR VV010 M01/M03 A2964 RMK AO2 PK WND 26028/0154 P0001 T10111028
KGUP 200213Z AUTO 26018G22KT 3/4SM -SN BR VV010 M01/M02 A2962 RMK AO2 PK WND 26028/0154 P0000 T10111017
KGUP 200201Z AUTO 26015G28KT 1 1/4SM -SN BR FEW006 OVC012 M01/M02 A2961 RMK AO2 PK WND 26028/0154 P0000 T10111022
KGUP 200153Z AUTO 27022G34KT 3/4SM -SN BR FEW004 OVC010 M01/M02 A2961 RMK AO2 PK WND 28034/0148 SLP018 P0007 T10061017
KGUP 200146Z AUTO 26017G22KT 1SM -SN BR FEW004 OVC008 00/M01 A2959 RMK AO2 PK WND 24029/0059 P0007 T00001006
KGUP 200105Z AUTO 25021G29KT 1/2SM SN FG BKN007 BKN013 OVC019 01/M01 A2957 RMK AO2 PK WND 24029/0059 P0003 T00061006
KGUP 200100Z AUTO 25022G29KT 1SM -SN BR FEW010 OVC017 01/00 A2957 RMK AO2 PK WND 24029/0059 P0002 T00110000
KGUP 200051Z AUTO 24020G35KT 2 1/2SM VCTS -SN BR SCT015 BKN023 OVC033 02/00 A2955 RMK AO2 PK WND 23041/0019 RAE12SNB12 SLP983 P0004 T00170000
KGUP 200050Z AUTO 24019G35KT 2 1/2SM VCTS -SN BR SCT015 BKN023 OVC033 02/00 A2955 RMK AO2 PK WND 23041/0019 RAE12SNB12 P0004
KGUP 200037Z AUTO 25024G40KT 3SM -SN BR FEW015 BKN023 OVC035 02/M01 A2954 RMK AO2 PK WND 23041/0019 RAE12SNB12 P0003 T00171006
KGUP 200021Z AUTO 24028G41KT 1SM -SN BR BKN019 BKN027 OVC034 02/M01 A2954 RMK AO2 PK WND 23041/0019 RAE12SNB12 P0003 T00171006
KGUP 200014Z AUTO 23032G39KT 2SM -SN BKN023 BKN033 OVC049 03/M01 A2953 RMK AO2 PK WND 24039/0014 RAE12SNB12 P0002 T00281006
KGUP 192353Z AUTO 23024G41KT 10SM -RA FEW045 BKN050 OVC070 06/M03 A2951 RMK AO2 PK WND 21051/2321 RAB34 SLP953 P0000 60000 T00561028 10094 20044 55004
KGUP 192253Z AUTO 22036G51KT 10SM FEW049 SCT060 BKN075 07/M03 A2950 RMK AO2 PK WND 20051/2249 RAE10 SLP946 P0000 T00721033
KGUP 192153Z AUTO 22031G45KT 10SM -RA FEW045 BKN070 OVC090 07/M01 A2951 RMK AO2 PK WND 23046/2137 RAB07E26B44 SLP943 P0000 T00721006
KGUP 192053Z AUTO 22030G45KT 10SM FEW046 BKN075 OVC100 09/00 A2952 RMK AO2 PK WND 22048/1959 RAE31 SLP944 P0000 60000 T00890000 56027
KGUP 191953Z AUTO 22031G40KT 10SM -RA FEW039 BKN046 OVC080 08/01 A2955 RMK AO2 PK WND 20045/1908 RAB33 SLP955 P0000 T00830006
KGUP 191853Z AUTO 21024G40KT 10SM SCT043 BKN050 OVC075 07/00 A2958 RMK AO2 PK WND 20044/1816 RAE52 SLP970 P0000 T00670000
KGUP 191819Z AUTO 21031G44KT 10SM -RA FEW024 BKN034 OVC090 06/02 A2960 RMK AO2 PK WND 20044/1816 P0000 T00610022
KGUP 191753Z AUTO 21025G33KT 6SM -RA BKN026 OVC033 04/02 A2962 RMK AO2 PK WND 22043/1726 RAB15 SLP992 P0002 60005 T00440017 10072 20028 58014